Time;durP1;ratioP1;P1;durP2;ratioP2;P2;SDS_P1;SDS_P2;PMS_P1;PMS_P2;Temp;Humidity;BMP_temperature;BMP_pressure;BME280_temperature;BME280_humidity;BME280_pressure;Samples;Min_cycle;Max_cycle;Signal;HPM_P1;HPM_P2
2024/01/14 00:01:41;;;;;;;;;;;;;;;;;;5021244;28;60168;-74
2024/01/14 00:04:06;;;;;;;;;;;;;;;;;;5019591;28;59653;-73
2024/01/14 00:06:32;;;;;;;;;;;;;;;;;;5021058;28;59406;-75
2024/01/14 00:08:57;;;;;;;;;;;;;;;;;;5020330;28;60600;-76
2024/01/14 00:11:22;;;;;;;;;;;;;;;;;;5022191;28;59583;-76
2024/01/14 00:13:47;;;;;;;;;;;;;;;;;;5019310;27;60343;-77
2024/01/14 00:16:12;;;;;;;;;;;;;;;;;;5019536;28;59869;-76
2024/01/14 00:18:37;;;;;;;;;;;;;;;;;;5015619;28;59008;-77
2024/01/14 00:21:03;;;;;;;;;;;;;;;;;;5019785;28;60284;-77
2024/01/14 00:23:28;;;;;;;;;;;;;;;;;;5020675;28;59658;-77
2024/01/14 00:25:53;;;;;;;;;;;;;;;;;;5021745;28;59566;-77
2024/01/14 00:28:18;;;;;;;;;;;;;;;;;;5018503;28;60121;-77
2024/01/14 00:30:43;;;;;;;;;;;;;;;;;;5019559;28;59152;-77
2024/01/14 00:33:08;;;;;;;;;;;;;;;;;;5020206;27;60299;-76
2024/01/14 00:35:33;;;;;;;;;;;;;;;;;;5019358;28;59582;-77
2024/01/14 00:37:59;;;;;;;;;;;;;;;;;;5019552;28;59361;-77
2024/01/14 00:40:24;;;;;;;;;;;;;;;;;;5021174;28;60238;-77
2024/01/14 00:42:50;;;;;;;;;;;;;;;;;;5023043;28;59173;-76
2024/01/14 00:45:15;;;;;;;;;;;;;;;;;;5024816;28;59486;-77
2024/01/14 00:47:40;;;;;;;;;;;;;;;;;;5026072;28;59257;-77
2024/01/14 00:50:05;;;;;;;;;;;;;;;;;;5021722;28;59464;-77
2024/01/14 00:52:32;;;;;;;;;;;;;;;;;;5024092;28;59301;-77
2024/01/14 00:54:57;;;;;;;;;;;;;;;;;;5021088;28;59865;-77
2024/01/14 00:57:22;;;;;;;;;;;;;;;;;;5024446;28;59420;-76
2024/01/14 00:59:47;;;;;;;;;;;;;;;;;;5026297;28;59532;-77
2024/01/14 01:02:12;;;;;;;;;;;;;;;;;;5023300;28;60518;-77
2024/01/14 01:04:37;;;;;;;;;;;;;;;;;;5024583;28;59678;-77
2024/01/14 01:07:03;;;;;;;;;;;;;;;;;;5023317;28;60304;-77
2024/01/14 01:09:28;;;;;;;;;;;;;;;;;;5022554;28;60852;-77
2024/01/14 01:11:53;;;;;;;;;;;;;;;;;;5024067;28;58476;-77
2024/01/14 01:14:18;;;;;;;;;;;;;;;;;;5024550;28;59440;-77
2024/01/14 01:16:43;;;;;;;;;;;;;;;;;;5022631;28;60323;-76
2024/01/14 01:19:08;;;;;;;;;;;;;;;;;;5024626;28;60261;-77
2024/01/14 01:21:33;;;;;;;;;;;;;;;;;;5021905;28;59762;-77
2024/01/14 01:23:58;;;;;;;;;;;;;;;;;;5024290;27;59457;-77
2024/01/14 01:26:23;;;;;;;;;;;;;;;;;;5022974;28;59805;-77
2024/01/14 01:28:48;;;;;;;;;;;;;;;;;;5022282;28;59861;-77
2024/01/14 01:31:13;;;;;;;;;;;;;;;;;;5019700;27;59921;-77
2024/01/14 01:33:38;;;;;;;;;;;;;;;;;;5022879;28;60672;-77
2024/01/14 01:36:03;;;;;;;;;;;;;;;;;;5024338;28;59675;-77
2024/01/14 01:38:29;;;;;;;;;;;;;;;;;;5022723;28;60151;-77
2024/01/14 01:40:54;;;;;;;;;;;;;;;;;;5021974;28;59557;-77
2024/01/14 01:43:19;;;;;;;;;;;;;;;;;;5024273;28;59459;-77
2024/01/14 01:45:44;;;;;;;;;;;;;;;;;;5021003;28;60076;-77
2024/01/14 01:48:09;;;;;;;;;;;;;;;;;;5023718;28;59899;-77
2024/01/14 01:50:34;;;;;;;;;;;;;;;;;;5022943;28;59558;-77
2024/01/14 01:52:59;;;;;;;;;;;;;;;;;;5021398;28;60165;-77
2024/01/14 01:55:24;;;;;;;;;;;;;;;;;;5023448;28;59683;-77
2024/01/14 01:57:49;;;;;;;;;;;;;;;;;;5025065;27;59571;-77
2024/01/14 02:00:15;;;;;;;;;;;;;;;;;;5021740;28;59357;-77
2024/01/14 02:02:40;;;;;;;;;;;;;;;;;;5022433;28;59199;-77
2024/01/14 02:05:05;;;;;;;;;;;;;;;;;;5023290;28;61088;-76
2024/01/14 02:07:30;;;;;;;;;;;;;;;;;;5022507;28;60100;-77
2024/01/14 02:09:55;;;;;;;;;;;;;;;;;;5020814;28;59307;-77
2024/01/14 02:12:20;;;;;;;;;;;;;;;;;;5022257;27;59611;-77
2024/01/14 02:14:45;;;;;;;;;;;;;;;;;;5020633;28;59468;-77
2024/01/14 02:17:10;;;;;;;;;;;;;;;;;;5023827;28;59015;-77
2024/01/14 02:19:35;;;;;;;;;;;;;;;;;;5022045;28;60459;-77
2024/01/14 02:22:00;;;;;;;;;;;;;;;;;;5022264;28;59497;-77
2024/01/14 02:24:25;;;;;;;;;;;;;;;;;;5022520;28;60746;-77
2024/01/14 02:26:50;;;;;;;;;;;;;;;;;;5021770;28;59195;-77
2024/01/14 02:29:16;;;;;;;;;;;;;;;;;;5017926;28;59623;-77
2024/01/14 02:31:41;;;;;;;;;;;;;;;;;;5021560;27;61369;-77
2024/01/14 02:34:07;;;;;;;;;;;;;;;;;;5020689;28;59802;-77
2024/01/14 02:36:32;;;;;;;;;;;;;;;;;;5021714;28;59278;-77
2024/01/14 02:38:57;;;;;;;;;;;;;;;;;;5022447;27;60353;-77
2024/01/14 02:41:22;;;;;;;;;;;;;;;;;;5022891;28;59029;-74
2024/01/14 02:43:47;;;;;;;;;;;;;;;;;;5021843;28;60169;-76
2024/01/14 02:46:12;;;;;;;;;;;;;;;;;;5018677;28;59645;-75
2024/01/14 02:48:37;;;;;;;;;;;;;;;;;;5020835;27;60992;-74
2024/01/14 02:51:02;;;;;;;;;;;;;;;;;;5018109;27;59713;-75
2024/01/14 02:53:27;;;;;;;;;;;;;;;;;;5016805;28;59885;-75
2024/01/14 02:55:52;;;;;;;;;;;;;;;;;;5019396;28;59170;-76
2024/01/14 02:58:18;;;;;;;;;;;;;;;;;;5019476;28;61074;-74
2024/01/14 03:00:43;;;;;;;;;;;;;;;;;;5019024;27;60162;-74
2024/01/14 03:03:08;;;;;;;;;;;;;;;;;;5020263;28;60442;-75
2024/01/14 03:05:33;;;;;;;;;;;;;;;;;;5019401;28;59995;-75
2024/01/14 03:07:58;;;;;;;;;;;;;;;;;;5019004;27;59602;-76
2024/01/14 03:10:23;;;;;;;;;;;;;;;;;;5017959;28;60279;-75
2024/01/14 03:12:48;;;;;;;;;;;;;;;;;;5016133;28;59449;-75
2024/01/14 03:15:13;;;;;;;;;;;;;;;;;;5016557;28;59461;-75
2024/01/14 03:17:38;;;;;;;;;;;;;;;;;;5020806;28;60437;-75
2024/01/14 03:20:04;;;;;;;;;;;;;;;;;;5018416;28;59222;-74
2024/01/14 03:22:29;;;;;;;;;;;;;;;;;;5017428;28;59697;-75
2024/01/14 03:24:54;;;;;;;;;;;;;;;;;;5018203;27;60643;-75
2024/01/14 03:27:19;;;;;;;;;;;;;;;;;;5019729;28;59965;-75
2024/01/14 03:29:44;;;;;;;;;;;;;;;;;;5016522;28;60365;-75
2024/01/14 03:32:09;;;;;;;;;;;;;;;;;;5018127;28;60145;-75
2024/01/14 03:34:36;;;;;;;;;;;;;;;;;;5018086;28;59430;-75
2024/01/14 03:37:01;;;;;;;;;;;;;;;;;;5016376;28;60782;-75
2024/01/14 03:39:27;;;;;;;;;;;;;;;;;;5016559;28;60033;-76
2024/01/14 03:41:52;;;;;;;;;;;;;;;;;;5016746;28;59737;-74
2024/01/14 03:44:17;;;;;;;;;;;;;;;;;;5015142;28;61107;-74
2024/01/14 03:46:42;;;;;;;;;;;;;;;;;;5012841;28;59479;-75
2024/01/14 03:49:08;;;;;;;;;;;;;;;;;;5016846;28;61006;-75
2024/01/14 03:51:33;;;;;;;;;;;;;;;;;;5013819;28;60659;-74
2024/01/14 03:53:58;;;;;;;;;;;;;;;;;;5016356;28;59247;-75
2024/01/14 03:56:23;;;;;;;;;;;;;;;;;;5018342;28;60685;-75
2024/01/14 03:58:48;;;;;;;;;;;;;;;;;;5016751;28;59712;-75
2024/01/14 04:01:13;;;;;;;;;;;;;;;;;;5017188;28;59560;-75
2024/01/14 04:03:39;;;;;;;;;;;;;;;;;;5017059;28;60794;-75
2024/01/14 04:06:04;;;;;;;;;;;;;;;;;;5016917;28;59764;-74
2024/01/14 04:08:29;;;;;;;;;;;;;;;;;;5017194;28;60376;-73
2024/01/14 04:10:54;;;;;;;;;;;;;;;;;;5017450;28;59682;-74
2024/01/14 04:13:19;;;;;;;;;;;;;;;;;;5013674;28;59547;-75
2024/01/14 04:15:44;;;;;;;;;;;;;;;;;;5016039;28;61424;-75
2024/01/14 04:18:09;;;;;;;;;;;;;;;;;;5016824;28;59589;-75
2024/01/14 04:20:34;;;;;;;;;;;;;;;;;;5019763;28;60352;-75
2024/01/14 04:22:59;;;;;;;;;;;;;;;;;;5019987;28;60282;-76
2024/01/14 04:25:24;;;;;;;;;;;;;;;;;;5018015;28;59273;-75
2024/01/14 04:27:49;;;;;;;;;;;;;;;;;;5018865;28;60110;-75
2024/01/14 04:30:14;;;;;;;;;;;;;;;;;;5018178;27;59652;-75
2024/01/14 04:32:39;;;;;;;;;;;;;;;;;;5023055;28;59351;-75
2024/01/14 04:35:05;;;;;;;;;;;;;;;;;;5020276;28;59780;-74
2024/01/14 04:37:30;;;;;;;;;;;;;;;;;;5018967;28;59503;-74
2024/01/14 04:39:55;;;;;;;;;;;;;;;;;;5021112;27;59561;-74
2024/01/14 04:42:20;;;;;;;;;;;;;;;;;;5020705;28;62044;-75
2024/01/14 04:44:45;;;;;;;;;;;;;;;;;;5019975;28;60176;-75
2024/01/14 04:47:11;;;;;;;;;;;;;;;;;;5022581;28;60077;-75
2024/01/14 04:49:36;;;;;;;;;;;;;;;;;;5020475;28;59833;-75
2024/01/14 04:52:01;;;;;;;;;;;;;;;;;;5019325;27;59614;-77
2024/01/14 04:54:26;;;;;;;;;;;;;;;;;;5019061;28;59739;-76
2024/01/14 04:56:52;;;;;;;;;;;;;;;;;;5022633;28;59369;-77
2024/01/14 04:59:17;;;;;;;;;;;;;;;;;;5020881;28;59328;-77
2024/01/14 05:01:42;;;;;;;;;;;;;;;;;;5021531;28;59668;-75
2024/01/14 05:04:07;;;;;;;;;;;;;;;;;;5018555;28;59589;-75
2024/01/14 05:06:32;;;;;;;;;;;;;;;;;;5016512;28;59247;-75
2024/01/14 05:08:58;;;;;;;;;;;;;;;;;;5019626;28;60693;-75
2024/01/14 05:11:23;;;;;;;;;;;;;;;;;;5021558;28;59665;-75
2024/01/14 05:13:48;;;;;;;;;;;;;;;;;;5021643;28;61198;-74
2024/01/14 05:16:14;;;;;;;;;;;;;;;;;;5016650;28;59573;-75
2024/01/14 05:18:39;;;;;;;;;;;;;;;;;;5022409;28;60418;-74
2024/01/14 05:21:06;;;;;;;;;;;;;;;;;;5020038;28;59528;-75
2024/01/14 05:23:31;;;;;;;;;;;;;;;;;;5018796;28;60551;-74
2024/01/14 05:25:56;;;;;;;;;;;;;;;;;;5020571;28;59498;-75
2024/01/14 05:28:21;;;;;;;;;;;;;;;;;;5017665;28;60112;-75
2024/01/14 05:30:46;;;;;;;;;;;;;;;;;;5019096;27;59994;-75
2024/01/14 05:33:11;;;;;;;;;;;;;;;;;;5018408;28;60514;-76
2024/01/14 05:35:36;;;;;;;;;;;;;;;;;;5017884;28;59572;-75
2024/01/14 05:38:01;;;;;;;;;;;;;;;;;;5018993;28;59286;-75
2024/01/14 05:40:26;;;;;;;;;;;;;;;;;;5018380;28;60314;-75
2024/01/14 05:42:52;;;;;;;;;;;;;;;;;;5018714;28;60086;-75
2024/01/14 05:45:17;;;;;;;;;;;;;;;;;;5019724;28;60234;-76
2024/01/14 05:47:42;;;;;;;;;;;;;;;;;;5019893;28;60454;-74
2024/01/14 05:50:07;;;;;;;;;;;;;;;;;;5017678;28;59631;-74
2024/01/14 05:52:32;;;;;;;;;;;;;;;;;;5019470;28;59700;-76
2024/01/14 05:54:57;;;;;;;;;;;;;;;;;;5017938;28;59545;-74
2024/01/14 05:57:22;;;;;;;;;;;;;;;;;;5019191;28;59227;-74
2024/01/14 05:59:47;;;;;;;;;;;;;;;;;;5020266;28;60331;-74
2024/01/14 06:02:13;;;;;;;;;;;;;;;;;;5017561;28;59275;-77
2024/01/14 06:04:38;;;;;;;;;;;;;;;;;;5019620;27;59156;-77
2024/01/14 06:07:03;;;;;;;;;;;;;;;;;;5019188;28;60053;-77
2024/01/14 06:09:28;;;;;;;;;;;;;;;;;;5018993;27;59731;-76
2024/01/14 06:11:53;;;;;;;;;;;;;;;;;;5023780;28;59570;-75
2024/01/14 06:14:18;;;;;;;;;;;;;;;;;;5018708;28;60107;-76
2024/01/14 06:16:43;;;;;;;;;;;;;;;;;;5018017;28;59907;-74
2024/01/14 06:19:08;;;;;;;;;;;;;;;;;;5016092;28;60527;-75
2024/01/14 06:21:34;;;;;;;;;;;;;;;;;;5016923;28;59349;-74
2024/01/14 06:23:59;;;;;;;;;;;;;;;;;;5018831;28;59231;-74
2024/01/14 06:26:24;;;;;;;;;;;;;;;;;;5018762;28;59992;-74
2024/01/14 06:28:49;;;;;;;;;;;;;;;;;;5018510;28;59514;-75
2024/01/14 06:31:14;;;;;;;;;;;;;;;;;;5019963;27;60577;-74
2024/01/14 06:33:40;;;;;;;;;;;;;;;;;;5018441;28;60953;-74
2024/01/14 06:36:05;;;;;;;;;;;;;;;;;;5017280;28;59584;-75
2024/01/14 06:38:30;;;;;;;;;;;;;;;;;;5018627;28;60238;-74
2024/01/14 06:40:55;;;;;;;;;;;;;;;;;;5017080;28;59719;-74
2024/01/14 06:43:20;;;;;;;;;;;;;;;;;;5017787;28;59430;-75
2024/01/14 06:45:45;;;;;;;;;;;;;;;;;;5013763;28;60299;-75
2024/01/14 06:48:10;;;;;;;;;;;;;;;;;;5018577;28;59321;-74
2024/01/14 06:50:35;;;;;;;;;;;;;;;;;;5018164;28;59590;-75
2024/01/14 06:53:01;;;;;;;;;;;;;;;;;;5017148;28;60475;-80
2024/01/14 06:55:26;;;;;;;;;;;;;;;;;;5018737;28;58887;-79
2024/01/14 06:57:51;;;;;;;;;;;;;;;;;;5016133;27;59246;-73
2024/01/14 07:00:16;;;;;;;;;;;;;;;;;;5018338;28;59722;-74
2024/01/14 07:02:41;;;;;;;;;;;;;;;;;;5020634;28;59641;-72
2024/01/14 07:05:08;;;;;;;;;;;;;;;;;;5017952;28;59989;-74
2024/01/14 07:07:33;;;;;;;;;;;;;;;;;;5015090;28;59308;-75
2024/01/14 07:09:59;;;;;;;;;;;;;;;;;;5019269;28;60264;-74
2024/01/14 07:12:24;;;;;;;;;;;;;;;;;;5017562;28;61023;-76
2024/01/14 07:14:49;;;;;;;;;;;;;;;;;;5017440;28;59629;-78
2024/01/14 07:17:15;;;;;;;;;;;;;;;;;;5018321;28;59239;-73
2024/01/14 07:19:40;;;;;;;;;;;;;;;;;;5018086;28;59602;-76
2024/01/14 07:22:06;;;;;;;;;;;;;;;;;;5019781;28;59279;-74
2024/01/14 07:24:31;;;;;;;;;;;;;;;;;;5017616;27;61248;-73
2024/01/14 07:26:57;;;;;;;;;;;;;;;;;;5016225;28;59353;-74
2024/01/14 07:29:22;;;;;;;;;;;;;;;;;;5016644;28;59314;-76
2024/01/14 07:31:47;;;;;;;;;;;;;;;;;;5016539;28;60352;-74
2024/01/14 07:34:12;;;;;;;;;;;;;;;;;;5016283;28;59554;-75
2024/01/14 07:36:37;;;;;;;;;;;;;;;;;;5018395;27;59598;-73
2024/01/14 07:39:04;;;;;;;;;;;;;;;;;;5017807;28;60316;-75
2024/01/14 07:41:29;;;;;;;;;;;;;;;;;;5015717;28;59469;-75
2024/01/14 07:43:54;;;;;;;;;;;;;;;;;;5015243;28;59351;-75
2024/01/14 07:46:20;;;;;;;;;;;;;;;;;;5011966;28;60093;-74
2024/01/14 07:48:46;;;;;;;;;;;;;;;;;;5017425;28;59453;-73
2024/01/14 07:51:11;;;;;;;;;;;;;;;;;;5013612;28;60157;-73
2024/01/14 07:53:37;;;;;;;;;;;;;;;;;;5016620;28;60434;-72
2024/01/14 07:56:02;;;;;;;;;;;;;;;;;;5017993;28;59135;-75
2024/01/14 07:58:27;;;;;;;;;;;;;;;;;;5018931;28;60057;-76
2024/01/14 08:00:52;;;;;;;;;;;;;;;;;;5015911;28;59773;-73
2024/01/14 08:03:17;;;;;;;;;;;;;;;;;;5018034;28;59714;-73
2024/01/14 08:05:42;;;;;;;;;;;;;;;;;;5015489;28;59786;-73
2024/01/14 08:08:08;;;;;;;;;;;;;;;;;;5017523;28;59518;-75
2024/01/14 08:10:33;;;;;;;;;;;;;;;;;;5014417;28;60316;-74
2024/01/14 08:12:59;;;;;;;;;;;;;;;;;;5013632;28;59553;-74
2024/01/14 08:15:24;;;;;;;;;;;;;;;;;;5016669;28;59891;-73
2024/01/14 08:17:49;;;;;;;;;;;;;;;;;;5018730;28;60129;-76
2024/01/14 08:20:14;;;;;;;;;;;;;;;;;;5019777;28;60426;-76
2024/01/14 08:22:42;;;;;;;;;;;;;;;;;;5020166;28;59179;-77
2024/01/14 08:25:13;;;;;;;;;;;;;;;;;;5012565;27;59360;-74
2024/01/14 08:27:38;;;;;;;;;;;;;;;;;;5018404;28;59119;-74
2024/01/14 08:30:04;;;;;;;;;;;;;;;;;;5016076;28;60196;-75
2024/01/14 08:32:29;;;;;;;;;;;;;;;;;;5016912;28;59734;-76
2024/01/14 08:34:55;;;;;;;;;;;;;;;;;;5016019;28;59159;-75
2024/01/14 08:37:20;;;;;;;;;;;;;;;;;;5016098;28;60378;-73
2024/01/14 08:39:45;;;;;;;;;;;;;;;;;;5015685;28;59614;-75
2024/01/14 08:42:10;;;;;;;;;;;;;;;;;;5015596;28;59672;-76
2024/01/14 08:44:35;;;;;;;;;;;;;;;;;;5019263;28;59777;-75
2024/01/14 08:47:01;;;;;;;;;;;;;;;;;;5016677;28;61381;-74
2024/01/14 08:49:29;;;;;;;;;;;;;;;;;;5015169;28;60547;-72
2024/01/14 08:51:54;;;;;;;;;;;;;;;;;;5013975;28;59580;-74
2024/01/14 08:54:21;;;;;;;;;;;;;;;;;;5018050;28;59167;-74
2024/01/14 08:56:46;;;;;;;;;;;;;;;;;;5017077;28;60267;-73
2024/01/14 08:59:11;;;;;;;;;;;;;;;;;;5017010;28;59416;-75
2024/01/14 09:01:36;;;;;;;;;;;;;;;;;;5012939;28;59484;-75
2024/01/14 09:04:01;;;;;;;;;;;;;;;;;;5018693;28;59312;-74
2024/01/14 09:06:26;;;;;;;;;;;;;;;;;;5020582;28;59423;-75
2024/01/14 09:08:51;;;;;;;;;;;;;;;;;;5019042;28;61023;-75
2024/01/14 09:11:17;;;;;;;;;;;;;;;;;;5018570;28;59866;-74
2024/01/14 09:13:45;;;;;;;;;;;;;;;;;;5018964;27;60219;-74
2024/01/14 09:16:10;;;;;;;;;;;;;;;;;;5020092;28;60178;-76
2024/01/14 09:18:35;;;;;;;;;;;;;;;;;;5016761;28;59370;-73
2024/01/14 09:21:00;;;;;;;;;;;;;;;;;;5019443;28;59530;-73
2024/01/14 09:23:25;;;;;;;;;;;;;;;;;;5021127;28;59650;-75
2024/01/14 09:25:51;;;;;;;;;;;;;;;;;;5018541;28;59597;-72
2024/01/14 09:28:16;;;;;;;;;;;;;;;;;;5019195;28;60303;-73
2024/01/14 09:30:41;;;;;;;;;;;;;;;;;;5017744;27;59433;-73
2024/01/14 09:33:06;;;;;;;;;;;;;;;;;;5018287;28;59323;-74
2024/01/14 09:35:32;;;;;;;;;;;;;;;;;;5020968;28;60220;-79
2024/01/14 09:37:57;;;;;;;;;;;;;;;;;;5017743;28;59470;-74
2024/01/14 09:40:23;;;;;;;;;;;;;;;;;;5019333;28;59190;-78
2024/01/14 09:42:48;;;;;;;;;;;;;;;;;;5020957;28;60194;-78
2024/01/14 09:45:14;;;;;;;;;;;;;;;;;;5019030;28;59563;-77
2024/01/14 09:47:39;;;;;;;;;;;;;;;;;;5023536;28;59251;-78
2024/01/14 09:50:04;;;;;;;;;;;;;;;;;;5023668;28;59691;-81
2024/01/14 09:52:29;;;;;;;;;;;;;;;;;;5023533;27;59198;-78
2024/01/14 09:54:54;;;;;;;;;;;;;;;;;;5018505;27;59659;-73
2024/01/14 09:57:20;;;;;;;;;;;;;;;;;;5017299;28;59273;-73
2024/01/14 09:59:45;;;;;;;;;;;;;;;;;;5022190;28;59913;-75
2024/01/14 10:02:10;;;;;;;;;;;;;;;;;;5015497;28;60733;-73
2024/01/14 10:04:35;;;;;;;;;;;;;;;;;;5017433;28;59432;-72
2024/01/14 10:07:00;;;;;;;;;;;;;;;;;;5020054;28;59792;-73
2024/01/14 10:09:26;;;;;;;;;;;;;;;;;;5019310;28;60376;-72
2024/01/14 10:11:51;;;;;;;;;;;;;;;;;;5017802;28;59181;-72
2024/01/14 10:14:16;;;;;;;;;;;;;;;;;;5019034;28;59000;-72
2024/01/14 10:16:41;;;;;;;;;;;;;;;;;;5033749;27;60456;-73
2024/01/14 10:19:06;;;;;;;;;;;;;;;;;;5020590;28;59297;-73
2024/01/14 10:21:31;;;;;;;;;;;;;;;;;;5018498;28;60345;-73
2024/01/14 10:23:56;;;;;;;;;;;;;;;;;;5021641;28;59544;-73
2024/01/14 10:26:22;;;;;;;;;;;;;;;;;;5017886;28;59737;-73
2024/01/14 10:28:47;;;;;;;;;;;;;;;;;;5022410;28;61023;-72
2024/01/14 10:31:12;;;;;;;;;;;;;;;;;;5018032;28;59489;-75
2024/01/14 10:33:37;;;;;;;;;;;;;;;;;;5018690;27;59838;-75
2024/01/14 10:36:02;;;;;;;;;;;;;;;;;;5016868;27;60345;-77
2024/01/14 10:38:27;;;;;;;;;;;;;;;;;;5018933;28;59462;-76
2024/01/14 10:40:52;;;;;;;;;;;;;;;;;;5017077;28;60292;-78
2024/01/14 10:43:17;;;;;;;;;;;;;;;;;;5018365;28;59355;-74
2024/01/14 10:45:42;;;;;;;;;;;;;;;;;;5020926;28;59163;-69
2024/01/14 10:48:07;;;;;;;;;;;;;;;;;;5018597;28;60696;-73
2024/01/14 10:50:32;;;;;;;;;;;;;;;;;;5018873;28;59673;-83
2024/01/14 10:52:57;;;;;;;;;;;;;;;;;;5018163;27;61809;-79
2024/01/14 10:55:23;;;;;;;;;;;;;;;;;;5014843;28;59719;-81
2024/01/14 10:57:48;;;;;;;;;;;;;;;;;;5014228;28;60329;-79
2024/01/14 11:00:14;;;;;;;;;;;;;;;;;;5019034;28;60576;-80
2024/01/14 11:02:39;;;;;;;;;;;;;;;;;;5020831;28;60119;-79
2024/01/14 11:05:05;;;;;;;;;;;;;;;;;;5018905;28;59415;-78
2024/01/14 11:07:30;;;;;;;;;;;;;;;;;;5019540;28;60332;-78
2024/01/14 11:09:55;;;;;;;;;;;;;;;;;;5018835;28;60628;-80
2024/01/14 11:12:20;;;;;;;;;;;;;;;;;;5023493;28;59670;-78
2024/01/14 11:14:46;;;;;;;;;;;;;;;;;;5022553;28;59189;-78
2024/01/14 11:17:11;;;;;;;;;;;;;;;;;;5019642;28;59384;-78
2024/01/14 11:19:36;;;;;;;;;;;;;;;;;;5020963;28;60991;-79
2024/01/14 11:22:01;;;;;;;;;;;;;;;;;;5019812;28;59428;-78
2024/01/14 11:24:26;;;;;;;;;;;;;;;;;;5020765;28;59452;-78
2024/01/14 11:26:51;;;;;;;;;;;;;;;;;;5022565;28;60638;-80
2024/01/14 11:29:16;;;;;;;;;;;;;;;;;;5020581;28;59397;-79
2024/01/14 11:31:41;;;;;;;;;;;;;;;;;;5018100;28;59584;-78
2024/01/14 11:34:07;;;;;;;;;;;;;;;;;;5016700;28;61222;-77
2024/01/14 11:36:32;;;;;;;;;;;;;;;;;;5017895;28;59898;-76
2024/01/14 11:38:57;;;;;;;;;;;;;;;;;;5016683;28;60590;-77
2024/01/14 11:41:22;;;;;;;;;;;;;;;;;;5018324;28;59573;-77
2024/01/14 11:43:48;;;;;;;;;;;;;;;;;;5019135;28;59704;-77
2024/01/14 11:46:13;;;;;;;;;;;;;;;;;;5017045;28;60104;-78
2024/01/14 11:48:38;;;;;;;;;;;;;;;;;;5016929;28;59854;-77
2024/01/14 11:51:03;;;;;;;;;;;;;;;;;;5018843;28;59824;-82
2024/01/14 11:53:28;;;;;;;;;;;;;;;;;;5017161;28;59595;-80
2024/01/14 11:55:53;;;;;;;;;;;;;;;;;;5017111;28;59914;-76
2024/01/14 11:58:19;;;;;;;;;;;;;;;;;;5015703;28;61061;-76
2024/01/14 12:00:46;;;;;;;;;;;;;;;;;;5019185;28;59532;-74
2024/01/14 12:03:11;;;;;;;;;;;;;;;;;;5019458;28;59333;-73
2024/01/14 12:05:36;;;;;;;;;;;;;;;;;;5015938;28;59632;-78
2024/01/14 12:08:01;;;;;;;;;;;;;;;;;;5017032;28;59639;-74
2024/01/14 12:10:28;;;;;;;;;;;;;;;;;;5018555;28;60525;-76
2024/01/14 12:12:53;;;;;;;;;;;;;;;;;;5017759;28;59228;-74
2024/01/14 12:15:18;;;;;;;;;;;;;;;;;;5014447;28;59623;-73
2024/01/14 12:17:43;;;;;;;;;;;;;;;;;;5020655;28;59927;-73
2024/01/14 12:20:08;;;;;;;;;;;;;;;;;;5017655;28;59831;-78
2024/01/14 12:22:34;;;;;;;;;;;;;;;;;;5019987;27;59267;-77
2024/01/14 12:24:59;;;;;;;;;;;;;;;;;;5016133;28;59716;-75
2024/01/14 12:27:24;;;;;;;;;;;;;;;;;;5017294;28;59228;-78
2024/01/14 12:29:50;;;;;;;;;;;;;;;;;;5019795;28;59257;-78
2024/01/14 12:32:17;;;;;;;;;;;;;;;;;;5018567;28;81446;-79
2024/01/14 12:34:43;;;;;;;;;;;;;;;;;;5015747;27;59878;-80
2024/01/14 12:37:08;;;;;;;;;;;;;;;;;;5018669;27;59231;-78
2024/01/14 12:39:33;;;;;;;;;;;;;;;;;;5020959;28;60195;-75
2024/01/14 12:41:58;;;;;;;;;;;;;;;;;;5024432;28;59955;-76
2024/01/14 12:44:26;;;;;;;;;;;;;;;;;;5021777;28;59903;-76
2024/01/14 12:46:52;;;;;;;;;;;;;;;;;;5021585;27;59279;-76
2024/01/14 12:49:17;;;;;;;;;;;;;;;;;;5018803;27;60401;-76
2024/01/14 12:51:42;;;;;;;;;;;;;;;;;;5023095;28;60649;-76
2024/01/14 12:54:07;;;;;;;;;;;;;;;;;;5018214;27;59916;-76
2024/01/14 12:56:35;;;;;;;;;;;;;;;;;;5025754;28;59548;-74
2024/01/14 12:59:00;;;;;;;;;;;;;;;;;;5025242;28;59777;-78
2024/01/14 13:01:26;;;;;;;;;;;;;;;;;;5022683;28;59274;-79
2024/01/14 13:03:51;;;;;;;;;;;;;;;;;;5023781;28;60781;-80
2024/01/14 13:06:16;;;;;;;;;;;;;;;;;;5022775;28;59321;-77
2024/01/14 13:08:41;;;;;;;;;;;;;;;;;;5021761;28;59728;-76
2024/01/14 13:11:06;;;;;;;;;;;;;;;;;;5017078;27;61299;-80
2024/01/14 13:13:31;;;;;;;;;;;;;;;;;;5021814;28;59572;-82
2024/01/14 13:15:56;;;;;;;;;;;;;;;;;;5021213;28;59694;-80
2024/01/14 13:18:21;;;;;;;;;;;;;;;;;;5021486;28;60502;-82
2024/01/14 13:20:46;;;;;;;;;;;;;;;;;;5020987;28;59892;-80
2024/01/14 13:23:12;;;;;;;;;;;;;;;;;;5020737;28;61108;-80
2024/01/14 13:25:37;;;;;;;;;;;;;;;;;;5019480;27;59710;-80
2024/01/14 13:28:03;;;;;;;;;;;;;;;;;;5022097;28;59221;-82
2024/01/14 13:30:28;;;;;;;;;;;;;;;;;;5018408;28;61151;-75
2024/01/14 13:32:54;;;;;;;;;;;;;;;;;;5020668;28;59606;-80
2024/01/14 13:35:19;;;;;;;;;;;;;;;;;;5020390;28;59254;-80
2024/01/14 13:37:44;;;;;;;;;;;;;;;;;;5021250;28;59737;-81
2024/01/14 13:40:09;;;;;;;;;;;;;;;;;;5020000;28;59595;-80
2024/01/14 13:42:34;;;;;;;;;;;;;;;;;;5018280;28;59621;-84
2024/01/14 13:44:59;;;;;;;;;;;;;;;;;;5017739;28;59444;-80
2024/01/14 13:47:24;;;;;;;;;;;;;;;;;;5022319;28;59311;-81
2024/01/14 13:49:49;;;;;;;;;;;;;;;;;;5021140;27;61728;-79
2024/01/14 13:52:15;;;;;;;;;;;;;;;;;;5019668;28;59712;-80
2024/01/14 13:54:40;;;;;;;;;;;;;;;;;;5020010;28;59938;-81
2024/01/14 13:57:05;;;;;;;;;;;;;;;;;;5021073;27;60164;-80
2024/01/14 13:59:31;;;;;;;;;;;;;;;;;;5020979;28;60810;-81
2024/01/14 14:01:56;;;;;;;;;;;;;;;;;;5020764;28;59180;-79
2024/01/14 14:04:21;;;;;;;;;;;;;;;;;;5018557;28;60916;-79
2024/01/14 14:06:46;;;;;;;;;;;;;;;;;;5017028;28;59420;-79
2024/01/14 14:09:11;;;;;;;;;;;;;;;;;;5018293;28;60784;-80
2024/01/14 14:11:36;;;;;;;;;;;;;;;;;;5018608;28;60101;-76
2024/01/14 14:14:01;;;;;;;;;;;;;;;;;;5020359;28;59539;-74
2024/01/14 14:16:26;;;;;;;;;;;;;;;;;;5019339;28;60118;-77
2024/01/14 14:18:52;;;;;;;;;;;;;;;;;;5017840;27;59940;-77
2024/01/14 14:21:17;;;;;;;;;;;;;;;;;;5018411;28;59638;-80
2024/01/14 14:23:42;;;;;;;;;;;;;;;;;;5016162;28;60481;-80
2024/01/14 14:26:07;;;;;;;;;;;;;;;;;;5018662;28;59501;-80
2024/01/14 14:28:32;;;;;;;;;;;;;;;;;;5021269;28;59356;-80
2024/01/14 14:30:57;;;;;;;;;;;;;;;;;;5016700;28;59557;-81
2024/01/14 14:33:22;;;;;;;;;;;;;;;;;;5017881;27;60302;-79
2024/01/14 14:35:47;;;;;;;;;;;;;;;;;;5018882;28;60579;-79
2024/01/14 14:38:13;;;;;;;;;;;;;;;;;;5015079;28;59194;-81
2024/01/14 14:40:38;;;;;;;;;;;;;;;;;;5016682;28;59438;-81
2024/01/14 14:43:03;;;;;;;;;;;;;;;;;;5016457;28;60020;-81
2024/01/14 14:45:28;;;;;;;;;;;;;;;;;;5017166;28;58952;-80
2024/01/14 14:47:53;;;;;;;;;;;;;;;;;;5018256;28;59348;-79
2024/01/14 14:50:18;;;;;;;;;;;;;;;;;;5018583;27;60506;-81
2024/01/14 14:52:43;;;;;;;;;;;;;;;;;;5020197;28;59599;-81
2024/01/14 14:55:08;;;;;;;;;;;;;;;;;;5014578;28;59515;-79
2024/01/14 14:57:33;;;;;;;;;;;;;;;;;;5014467;28;59709;-79
2024/01/14 14:59:59;;;;;;;;;;;;;;;;;;5017048;28;59698;-79
2024/01/14 15:02:24;;;;;;;;;;;;;;;;;;5016668;28;59521;-80
2024/01/14 15:04:49;;;;;;;;;;;;;;;;;;5016727;28;59814;-79
2024/01/14 15:07:14;;;;;;;;;;;;;;;;;;5017301;28;59581;-79
2024/01/14 15:09:39;;;;;;;;;;;;;;;;;;5019673;28;59387;-79
2024/01/14 15:12:04;;;;;;;;;;;;;;;;;;5020759;28;59231;-79
2024/01/14 15:14:29;;;;;;;;;;;;;;;;;;5019325;28;60096;-79
2024/01/14 15:16:54;;;;;;;;;;;;;;;;;;5018768;28;59637;-79
2024/01/14 15:19:19;;;;;;;;;;;;;;;;;;5021171;27;59385;-79
2024/01/14 15:21:45;;;;;;;;;;;;;;;;;;5016003;28;59602;-79
2024/01/14 15:24:10;;;;;;;;;;;;;;;;;;5019528;28;59498;-80
2024/01/14 15:26:35;;;;;;;;;;;;;;;;;;5019042;28;59163;-80
2024/01/14 15:29:00;;;;;;;;;;;;;;;;;;5018464;28;60279;-80
2024/01/14 15:31:26;;;;;;;;;;;;;;;;;;5020950;28;59120;-75
2024/01/14 15:33:51;;;;;;;;;;;;;;;;;;5019638;28;60346;-77
2024/01/14 15:36:16;;;;;;;;;;;;;;;;;;5015695;28;59490;-76
2024/01/14 15:38:41;;;;;;;;;;;;;;;;;;5017807;28;59588;-77
2024/01/14 15:41:06;;;;;;;;;;;;;;;;;;5015381;28;60375;-79
2024/01/14 15:43:32;;;;;;;;;;;;;;;;;;5018351;28;59775;-76
2024/01/14 15:45:57;;;;;;;;;;;;;;;;;;5019438;28;59209;-76
2024/01/14 15:48:22;;;;;;;;;;;;;;;;;;5019974;27;60153;-76
2024/01/14 15:50:47;;;;;;;;;;;;;;;;;;5016709;28;60841;-77
2024/01/14 15:53:12;;;;;;;;;;;;;;;;;;5018656;28;62170;-76
2024/01/14 15:55:38;;;;;;;;;;;;;;;;;;5019847;28;59402;-76
2024/01/14 15:58:03;;;;;;;;;;;;;;;;;;5019565;28;59431;-75
2024/01/14 16:00:28;;;;;;;;;;;;;;;;;;5016684;28;60273;-75
2024/01/14 16:02:53;;;;;;;;;;;;;;;;;;5020288;28;59724;-76
2024/01/14 16:05:18;;;;;;;;;;;;;;;;;;5016738;28;59560;-76
2024/01/14 16:07:43;;;;;;;;;;;;;;;;;;5018906;28;59347;-76
2024/01/14 16:10:09;;;;;;;;;;;;;;;;;;5018571;28;59400;-77
2024/01/14 16:12:35;;;;;;;;;;;;;;;;;;5020867;28;59600;-77
2024/01/14 16:15:00;;;;;;;;;;;;;;;;;;5023170;28;59725;-76
2024/01/14 16:17:25;;;;;;;;;;;;;;;;;;5022011;28;59611;-77
2024/01/14 16:19:50;;;;;;;;;;;;;;;;;;5022665;28;60422;-77
2024/01/14 16:22:15;;;;;;;;;;;;;;;;;;5021981;28;59392;-76
2024/01/14 16:24:41;;;;;;;;;;;;;;;;;;5021669;28;59280;-77
2024/01/14 16:27:06;;;;;;;;;;;;;;;;;;5022873;28;60481;-77
2024/01/14 16:29:31;;;;;;;;;;;;;;;;;;5020926;28;60108;-76
2024/01/14 16:31:57;;;;;;;;;;;;;;;;;;5021319;28;58555;-77